sensor_id;sensor_type;location;lat;lon;timestamp;pressure;altitude;pressure_sealevel;temperature;humidity
30873;BME280;17579;42.690;2.586;2023-05-07T00:00:48;97210.19;;;18.13;67.51
30873;BME280;17579;42.690;2.586;2023-05-07T00:03:20;97198.41;;;18.07;67.48
30873;BME280;17579;42.690;2.586;2023-05-07T00:05:54;97206.00;;;18.04;67.48
30873;BME280;17579;42.690;2.586;2023-05-07T00:08:28;97198.19;;;18.02;67.52
30873;BME280;17579;42.690;2.586;2023-05-07T00:10:56;97198.81;;;18.04;67.53
30873;BME280;17579;42.690;2.586;2023-05-07T00:13:33;97189.13;;;18.03;67.93
30873;BME280;17579;42.690;2.586;2023-05-07T00:16:04;97192.00;;;18.02;68.00
30873;BME280;17579;42.690;2.586;2023-05-07T00:18:30;97188.28;;;18.03;67.69
30873;BME280;17579;42.690;2.586;2023-05-07T00:21:06;97193.66;;;18.03;67.93
30873;BME280;17579;42.690;2.586;2023-05-07T00:23:37;97178.63;;;18.02;68.08
30873;BME280;17579;42.690;2.586;2023-05-07T00:26:23;97188.09;;;18.04;67.82
30873;BME280;17579;42.690;2.586;2023-05-07T00:28:51;97185.38;;;17.97;67.46
30873;BME280;17579;42.690;2.586;2023-05-07T00:31:19;97195.03;;;17.92;67.73
30873;BME280;17579;42.690;2.586;2023-05-07T00:33:50;97184.50;;;17.90;67.71
30873;BME280;17579;42.690;2.586;2023-05-07T00:36:18;97187.59;;;17.94;67.92
30873;BME280;17579;42.690;2.586;2023-05-07T00:38:44;97178.56;;;17.95;68.02
30873;BME280;17579;42.690;2.586;2023-05-07T00:41:10;97178.38;;;17.96;68.00
30873;BME280;17579;42.690;2.586;2023-05-07T00:43:36;97182.31;;;18.00;67.86
30873;BME280;17579;42.690;2.586;2023-05-07T00:46:05;97186.22;;;17.98;67.71
30873;BME280;17579;42.690;2.586;2023-05-07T00:48:36;97189.50;;;18.00;67.89
30873;BME280;17579;42.690;2.586;2023-05-07T00:51:16;97187.59;;;17.94;68.13
30873;BME280;17579;42.690;2.586;2023-05-07T00:53:46;97193.03;;;18.00;67.76
30873;BME280;17579;42.690;2.586;2023-05-07T00:56:26;97193.84;;;18.01;68.19
30873;BME280;17579;42.690;2.586;2023-05-07T00:59:10;97187.41;;;17.95;68.20
30873;BME280;17579;42.690;2.586;2023-05-07T01:01:47;97184.41;;;18.05;67.87
30873;BME280;17579;42.690;2.586;2023-05-07T01:04:26;97183.78;;;18.03;67.91
30873;BME280;17579;42.690;2.586;2023-05-07T01:07:05;97176.97;;;18.00;67.83
30873;BME280;17579;42.690;2.586;2023-05-07T01:09:51;97174.72;;;18.04;67.90
30873;BME280;17579;42.690;2.586;2023-05-07T01:12:22;97185.22;;;18.06;67.77
30873;BME280;17579;42.690;2.586;2023-05-07T01:14:48;97181.72;;;18.05;67.71
30873;BME280;17579;42.690;2.586;2023-05-07T01:17:26;97174.31;;;18.07;67.92
30873;BME280;17579;42.690;2.586;2023-05-07T01:19:54;97187.28;;;18.04;67.68
30873;BME280;17579;42.690;2.586;2023-05-07T01:25:08;97173.91;;;18.04;67.91
30873;BME280;17579;42.690;2.586;2023-05-07T01:27:36;97181.94;;;18.04;67.79
30873;BME280;17579;42.690;2.586;2023-05-07T01:30:05;97175.09;;;18.01;67.65
30873;BME280;17579;42.690;2.586;2023-05-07T01:32:53;97178.63;;;18.02;68.03
30873;BME280;17579;42.690;2.586;2023-05-07T01:35:27;97172.81;;;17.98;67.88
30873;BME280;17579;42.690;2.586;2023-05-07T01:37:57;97183.47;;;17.91;67.77
30873;BME280;17579;42.690;2.586;2023-05-07T01:40:35;97178.28;;;17.90;67.85
30873;BME280;17579;42.690;2.586;2023-05-07T01:43:21;97169.63;;;17.88;67.98
30873;BME280;17579;42.690;2.586;2023-05-07T01:48:41;97162.41;;;17.88;67.83
30873;BME280;17579;42.690;2.586;2023-05-07T01:50:36;97160.44;;;17.90;67.57
30873;BME280;17579;42.690;2.586;2023-05-07T01:51:16;97181.75;;;17.83;67.78
30873;BME280;17579;42.690;2.586;2023-05-07T01:53:45;97191.44;;;17.84;68.19
30873;BME280;17579;42.690;2.586;2023-05-07T01:56:21;97194.72;;;17.87;67.88
30873;BME280;17579;42.690;2.586;2023-05-07T01:58:53;97194.09;;;17.84;68.17
30873;BME280;17579;42.690;2.586;2023-05-07T02:01:19;97193.06;;;17.86;68.25
30873;BME280;17579;42.690;2.586;2023-05-07T02:04:05;97191.75;;;17.75;68.58
30873;BME280;17579;42.690;2.586;2023-05-07T02:06:58;97188.94;;;17.83;67.65
30873;BME280;17579;42.690;2.586;2023-05-07T02:09:28;97185.00;;;17.79;67.34
30873;BME280;17579;42.690;2.586;2023-05-07T02:11:59;97188.09;;;17.82;67.09
30873;BME280;17579;42.690;2.586;2023-05-07T02:14:29;97189.31;;;17.80;66.61
30873;BME280;17579;42.690;2.586;2023-05-07T02:16:58;97189.13;;;17.81;65.69
30873;BME280;17579;42.690;2.586;2023-05-07T02:19:37;97189.97;;;17.82;65.21
30873;BME280;17579;42.690;2.586;2023-05-07T02:22:11;97193.66;;;17.81;65.26
30873;BME280;17579;42.690;2.586;2023-05-07T02:24:40;97198.19;;;17.80;65.16
30873;BME280;17579;42.690;2.586;2023-05-07T02:27:06;97196.78;;;17.84;64.59
30873;BME280;17579;42.690;2.586;2023-05-07T02:29:37;97198.00;;;17.82;64.78
30873;BME280;17579;42.690;2.586;2023-05-07T02:32:09;97199.44;;;17.84;64.21
30873;BME280;17579;42.690;2.586;2023-05-07T02:34:34;97202.13;;;17.84;64.51
30873;BME280;17579;42.690;2.586;2023-05-07T02:37:03;97205.00;;;17.83;63.99
30873;BME280;17579;42.690;2.586;2023-05-07T02:39:39;97207.69;;;17.83;64.02
30873;BME280;17579;42.690;2.586;2023-05-07T02:42:15;97212.19;;;17.82;63.76
30873;BME280;17579;42.690;2.586;2023-05-07T02:44:48;97213.84;;;17.83;63.42
30873;BME280;17579;42.690;2.586;2023-05-07T02:47:15;97208.88;;;17.80;63.48
30873;BME280;17579;42.690;2.586;2023-05-07T02:49:43;97215.91;;;17.81;63.50
30873;BME280;17579;42.690;2.586;2023-05-07T02:52:21;97215.44;;;17.78;63.85
30873;BME280;17579;42.690;2.586;2023-05-07T02:54:49;97207.88;;;17.81;63.36
30873;BME280;17579;42.690;2.586;2023-05-07T03:02:30;97197.88;;;17.69;63.03
30873;BME280;17579;42.690;2.586;2023-05-07T03:04:56;97188.19;;;17.67;63.14
30873;BME280;17579;42.690;2.586;2023-05-07T03:07:32;97197.00;;;17.61;63.53
30873;BME280;17579;42.690;2.586;2023-05-07T03:10:12;97187.59;;;17.51;64.05
30873;BME280;17579;42.690;2.586;2023-05-07T03:12:40;97180.78;;;17.48;63.82
30873;BME280;17579;42.690;2.586;2023-05-07T03:15:16;97178.50;;;17.45;63.63
30873;BME280;17579;42.690;2.586;2023-05-07T03:17:45;97178.06;;;17.41;63.49
30873;BME280;17579;42.690;2.586;2023-05-07T03:20:29;97173.03;;;17.31;63.95
30873;BME280;17579;42.690;2.586;2023-05-07T03:23:11;97184.34;;;17.34;63.88
30873;BME280;17579;42.690;2.586;2023-05-07T03:25:39;97173.28;;;17.37;63.75
30873;BME280;17579;42.690;2.586;2023-05-07T03:28:34;97167.31;;;17.35;64.28
30873;BME280;17579;42.690;2.586;2023-05-07T03:31:05;97178.06;;;17.41;63.81
30873;BME280;17579;42.690;2.586;2023-05-07T03:33:35;97171.25;;;17.39;64.24
30873;BME280;17579;42.690;2.586;2023-05-07T03:36:17;97167.94;;;17.37;64.37
30873;BME280;17579;42.690;2.586;2023-05-07T03:39:12;97164.44;;;17.36;64.59
30873;BME280;17579;42.690;2.586;2023-05-07T03:41:50;97165.78;;;17.47;63.97
30873;BME280;17579;42.690;2.586;2023-05-07T03:44:21;97153.81;;;17.43;64.28
30873;BME280;17579;42.690;2.586;2023-05-07T03:47:28;97145.41;;;17.46;64.23
30873;BME280;17579;42.690;2.586;2023-05-07T03:50:12;97137.97;;;17.41;64.40
30873;BME280;17579;42.690;2.586;2023-05-07T03:52:50;97137.81;;;17.49;63.85
30873;BME280;17579;42.690;2.586;2023-05-07T03:55:18;97143.31;;;17.41;63.55
30873;BME280;17579;42.690;2.586;2023-05-07T03:57:46;97134.41;;;17.34;63.75
30873;BME280;17579;42.690;2.586;2023-05-07T04:00:15;97130.00;;;17.26;63.97
30873;BME280;17579;42.690;2.586;2023-05-07T04:02:50;97136.94;;;17.21;63.94
30873;BME280;17579;42.690;2.586;2023-05-07T04:05:24;97148.00;;;17.18;63.95
30873;BME280;17579;42.690;2.586;2023-05-07T04:07:50;97151.88;;;17.15;64.23
30873;BME280;17579;42.690;2.586;2023-05-07T04:10:20;97146.28;;;17.10;64.24
30873;BME280;17579;42.690;2.586;2023-05-07T04:12:56;97155.50;;;17.07;64.24
30873;BME280;17579;42.690;2.586;2023-05-07T04:15:32;97154.50;;;17.08;63.92
30873;BME280;17579;42.690;2.586;2023-05-07T04:18:03;97148.56;;;17.13;64.03
30873;BME280;17579;42.690;2.586;2023-05-07T04:20:49;97152.00;;;17.07;64.12
30873;BME280;17579;42.690;2.586;2023-05-07T04:23:35;97155.59;;;17.14;64.03
30873;BME280;17579;42.690;2.586;2023-05-07T04:26:39;97161.22;;;17.04;64.19
30873;BME280;17579;42.690;2.586;2023-05-07T04:29:10;97160.22;;;17.05;63.64
30873;BME280;17579;42.690;2.586;2023-05-07T04:31:41;97163.25;;;17.02;63.74
30873;BME280;17579;42.690;2.586;2023-05-07T04:34:10;97170.44;;;17.02;63.67
30873;BME280;17579;42.690;2.586;2023-05-07T04:36:49;97169.81;;;17.00;63.94
30873;BME280;17579;42.690;2.586;2023-05-07T04:39:18;97166.69;;;16.96;63.31
30873;BME280;17579;42.690;2.586;2023-05-07T04:41:46;97167.50;;;16.96;63.68
30873;BME280;17579;42.690;2.586;2023-05-07T04:44:11;97176.34;;;16.97;63.12
30873;BME280;17579;42.690;2.586;2023-05-07T04:49:15;97186.00;;;16.98;63.36
30873;BME280;17579;42.690;2.586;2023-05-07T04:54:30;97197.34;;;17.00;63.08
30873;BME280;17579;42.690;2.586;2023-05-07T04:57:14;97216.88;;;17.01;62.74
30873;BME280;17579;42.690;2.586;2023-05-07T04:59:49;97219.16;;;17.04;62.46
30873;BME280;17579;42.690;2.586;2023-05-07T05:02:24;97230.69;;;17.04;62.80
30873;BME280;17579;42.690;2.586;2023-05-07T05:04:49;97223.22;;;17.14;62.51
30873;BME280;17579;42.690;2.586;2023-05-07T05:07:26;97216.66;;;17.17;nan
30873;BME280;17579;42.690;2.586;2023-05-07T05:09:54;97222.25;;;17.22;62.50
30873;BME280;17579;42.690;2.586;2023-05-07T05:12:28;97217.75;;;17.23;61.85
30873;BME280;17579;42.690;2.586;2023-05-07T05:14:59;97227.06;;;17.27;61.80
30873;BME280;17579;42.690;2.586;2023-05-07T05:17:44;97223.81;;;17.31;61.86
30873;BME280;17579;42.690;2.586;2023-05-07T05:20:17;97223.63;;;17.33;61.50
30873;BME280;17579;42.690;2.586;2023-05-07T05:22:46;97216.91;;;17.37;61.28
30873;BME280;17579;42.690;2.586;2023-05-07T05:25:12;97211.41;;;17.45;61.41
30873;BME280;17579;42.690;2.586;2023-05-07T05:27:51;97218.31;;;17.55;60.72
30873;BME280;17579;42.690;2.586;2023-05-07T05:30:21;97216.44;;;17.55;60.61
30873;BME280;17579;42.690;2.586;2023-05-07T05:33:10;97229.00;;;17.55;61.48
30873;BME280;17579;42.690;2.586;2023-05-07T05:36:04;97233.28;;;17.71;60.07
30873;BME280;17579;42.690;2.586;2023-05-07T05:38:35;97228.53;;;17.73;59.99
30873;BME280;17579;42.690;2.586;2023-05-07T05:41:06;97234.16;;;17.78;60.59
30873;BME280;17579;42.690;2.586;2023-05-07T05:43:35;97236.06;;;17.84;60.46
30873;BME280;17579;42.690;2.586;2023-05-07T05:46:29;97245.53;;;18.02;61.02
30873;BME280;17579;42.690;2.586;2023-05-07T05:48:55;97249.09;;;18.37;60.00
30873;BME280;17579;42.690;2.586;2023-05-07T05:51:30;97241.41;;;18.56;59.71
30873;BME280;17579;42.690;2.586;2023-05-07T05:54:09;97246.75;;;18.56;59.66
30873;BME280;17579;42.690;2.586;2023-05-07T05:56:41;97244.06;;;18.56;59.35
30873;BME280;17579;42.690;2.586;2023-05-07T05:59:27;97238.84;;;18.41;60.17
30873;BME280;17579;42.690;2.586;2023-05-07T06:01:55;97246.63;;;18.35;59.72
30873;BME280;17579;42.690;2.586;2023-05-07T06:04:32;97254.16;;;18.25;60.19
30873;BME280;17579;42.690;2.586;2023-05-07T06:07:10;97249.63;;;18.26;59.91
30873;BME280;17579;42.690;2.586;2023-05-07T06:09:38;97253.56;;;18.30;59.99
30873;BME280;17579;42.690;2.586;2023-05-07T06:12:07;97262.00;;;18.27;60.13
30873;BME280;17579;42.690;2.586;2023-05-07T06:14:38;97269.63;;;18.30;59.97
30873;BME280;17579;42.690;2.586;2023-05-07T06:17:13;97267.13;;;18.22;60.37
30873;BME280;17579;42.690;2.586;2023-05-07T06:19:54;97259.25;;;18.20;60.39
30873;BME280;17579;42.690;2.586;2023-05-07T06:22:43;97266.03;;;18.16;60.77
30873;BME280;17579;42.690;2.586;2023-05-07T06:25:16;97269.78;;;18.22;60.23
30873;BME280;17579;42.690;2.586;2023-05-07T06:27:44;97270.22;;;18.25;60.34
30873;BME280;17579;42.690;2.586;2023-05-07T06:33:06;97270.91;;;18.34;60.48
30873;BME280;17579;42.690;2.586;2023-05-07T06:35:45;97274.66;;;18.40;60.48
30873;BME280;17579;42.690;2.586;2023-05-07T06:38:15;97269.31;;;18.40;60.88
30873;BME280;17579;42.690;2.586;2023-05-07T06:40:51;97278.59;;;18.44;60.48
30873;BME280;17579;42.690;2.586;2023-05-07T06:43:19;97275.19;;;18.57;60.83
30873;BME280;17579;42.690;2.586;2023-05-07T06:45:50;97275.63;;;18.60;60.20
30873;BME280;17579;42.690;2.586;2023-05-07T06:48:26;97281.63;;;18.62;60.38
30873;BME280;17579;42.690;2.586;2023-05-07T06:50:52;97284.53;;;18.67;60.25
30873;BME280;17579;42.690;2.586;2023-05-07T06:53:23;97281.66;;;18.69;60.41
30873;BME280;17579;42.690;2.586;2023-05-07T06:55:51;97286.84;;;18.70;60.07
30873;BME280;17579;42.690;2.586;2023-05-07T06:59:03;97298.91;;;18.60;60.33
30873;BME280;17579;42.690;2.586;2023-05-07T07:01:29;97297.31;;;18.65;60.21
30873;BME280;17579;42.690;2.586;2023-05-07T07:04:00;97293.41;;;18.68;60.25
30873;BME280;17579;42.690;2.586;2023-05-07T07:06:26;97293.06;;;18.78;59.97
30873;BME280;17579;42.690;2.586;2023-05-07T07:09:17;97293.13;;;19.19;59.45
30873;BME280;17579;42.690;2.586;2023-05-07T07:11:45;97298.38;;;19.48;58.96
30873;BME280;17579;42.690;2.586;2023-05-07T07:14:21;97304.16;;;19.45;58.76
30873;BME280;17579;42.690;2.586;2023-05-07T07:16:52;97300.00;;;19.35;58.85
30873;BME280;17579;42.690;2.586;2023-05-07T07:19:21;97300.63;;;19.37;58.06
30873;BME280;17579;42.690;2.586;2023-05-07T07:21:46;97290.00;;;19.78;57.83
30873;BME280;17579;42.690;2.586;2023-05-07T07:24:23;97295.47;;;20.51;56.94
30873;BME280;17579;42.690;2.586;2023-05-07T07:26:54;97288.19;;;21.12;55.63
30873;BME280;17579;42.690;2.586;2023-05-07T07:29:29;97295.09;;;21.40;55.13
30873;BME280;17579;42.690;2.586;2023-05-07T07:31:59;97296.59;;;21.81;53.65
30873;BME280;17579;42.690;2.586;2023-05-07T07:34:28;97290.53;;;22.24;53.11
30873;BME280;17579;42.690;2.586;2023-05-07T07:36:54;97284.88;;;22.58;52.27
30873;BME280;17579;42.690;2.586;2023-05-07T07:39:33;97280.06;;;22.85;51.47
30873;BME280;17579;42.690;2.586;2023-05-07T07:42:02;97285.56;;;23.15;50.09
30873;BME280;17579;42.690;2.586;2023-05-07T07:44:28;97278.91;;;23.37;49.46
30873;BME280;17579;42.690;2.586;2023-05-07T07:46:58;97275.81;;;23.33;48.44
30873;BME280;17579;42.690;2.586;2023-05-07T07:49:33;97279.13;;;23.35;48.62
30873;BME280;17579;42.690;2.586;2023-05-07T07:52:03;97282.50;;;23.49;48.93
30873;BME280;17579;42.690;2.586;2023-05-07T07:54:44;97272.94;;;23.65;47.88
30873;BME280;17579;42.690;2.586;2023-05-07T07:57:10;97289.06;;;23.34;47.34
30873;BME280;17579;42.690;2.586;2023-05-07T07:59:39;97307.34;;;22.52;48.93
30873;BME280;17579;42.690;2.586;2023-05-07T08:02:11;97307.97;;;21.83;49.97
30873;BME280;17579;42.690;2.586;2023-05-07T08:04:46;97303.81;;;21.35;51.25
30873;BME280;17579;42.690;2.586;2023-05-07T08:07:15;97301.84;;;21.10;51.33
30873;BME280;17579;42.690;2.586;2023-05-07T08:10:10;97305.22;;;20.72;52.46
30873;BME280;17579;42.690;2.586;2023-05-07T08:12:48;97310.03;;;21.29;52.04
30873;BME280;17579;42.690;2.586;2023-05-07T08:18:06;97303.34;;;20.86;52.40
30873;BME280;17579;42.690;2.586;2023-05-07T08:20:42;97300.81;;;21.05;52.29
30873;BME280;17579;42.690;2.586;2023-05-07T08:23:11;97307.06;;;20.85;52.42
30873;BME280;17579;42.690;2.586;2023-05-07T08:25:39;97304.97;;;21.01;52.68
30873;BME280;17579;42.690;2.586;2023-05-07T08:28:19;97309.72;;;21.71;52.15
30873;BME280;17579;42.690;2.586;2023-05-07T08:30:52;97306.97;;;22.09;51.09
30873;BME280;17579;42.690;2.586;2023-05-07T08:34:21;97320.53;;;22.35;49.61
30873;BME280;17579;42.690;2.586;2023-05-07T08:36:50;97314.78;;;22.49;49.26
30873;BME280;17579;42.690;2.586;2023-05-07T08:39:35;97307.38;;;22.70;48.45
30873;BME280;17579;42.690;2.586;2023-05-07T08:42:16;97301.25;;;22.81;49.15
30873;BME280;17579;42.690;2.586;2023-05-07T08:44:50;97301.84;;;22.83;48.19
30873;BME280;17579;42.690;2.586;2023-05-07T08:47:40;97299.28;;;22.70;48.35
30873;BME280;17579;42.690;2.586;2023-05-07T08:50:26;97293.59;;;22.78;48.00
30873;BME280;17579;42.690;2.586;2023-05-07T08:52:55;97297.84;;;22.67;47.07
30873;BME280;17579;42.690;2.586;2023-05-07T08:55:31;97314.66;;;22.44;47.67
30873;BME280;17579;42.690;2.586;2023-05-07T08:58:00;97318.25;;;22.31;47.74
30873;BME280;17579;42.690;2.586;2023-05-07T09:01:08;97325.63;;;22.11;48.73
30873;BME280;17579;42.690;2.586;2023-05-07T09:03:55;97317.41;;;21.99;49.00
30873;BME280;17579;42.690;2.586;2023-05-07T09:06:41;97330.19;;;22.10;48.59
30873;BME280;17579;42.690;2.586;2023-05-07T09:09:21;97321.88;;;22.12;48.31
30873;BME280;17579;42.690;2.586;2023-05-07T09:11:57;97326.06;;;22.08;48.82
30873;BME280;17579;42.690;2.586;2023-05-07T09:14:49;97326.19;;;22.20;48.36
30873;BME280;17579;42.690;2.586;2023-05-07T09:17:44;97336.56;;;22.16;48.28
30873;BME280;17579;42.690;2.586;2023-05-07T09:20:12;97343.88;;;22.09;48.35
30873;BME280;17579;42.690;2.586;2023-05-07T09:22:38;97326.91;;;22.08;47.92
30873;BME280;17579;42.690;2.586;2023-05-07T09:25:45;97328.53;;;22.09;49.59
30873;BME280;17579;42.690;2.586;2023-05-07T09:28:23;97328.69;;;22.21;47.74
30873;BME280;17579;42.690;2.586;2023-05-07T09:31:10;97341.09;;;22.22;47.88
30873;BME280;17579;42.690;2.586;2023-05-07T09:33:39;97333.91;;;22.09;47.20
30873;BME280;17579;42.690;2.586;2023-05-07T09:36:07;97334.09;;;21.83;47.35
30873;BME280;17579;42.690;2.586;2023-05-07T09:38:54;97325.44;;;21.67;48.12
30873;BME280;17579;42.690;2.586;2023-05-07T09:41:44;97331.50;;;21.56;49.35
30873;BME280;17579;42.690;2.586;2023-05-07T09:44:10;97333.88;;;21.84;49.04
30873;BME280;17579;42.690;2.586;2023-05-07T09:46:44;97336.72;;;21.89;48.73
30873;BME280;17579;42.690;2.586;2023-05-07T09:49:17;97340.28;;;21.83;48.15
30873;BME280;17579;42.690;2.586;2023-05-07T09:52:13;97345.53;;;21.65;48.59
30873;BME280;17579;42.690;2.586;2023-05-07T09:54:48;97347.22;;;21.59;48.02
30873;BME280;17579;42.690;2.586;2023-05-07T09:57:55;97350.59;;;21.34;48.69
30873;BME280;17579;42.690;2.586;2023-05-07T10:00:28;97349.78;;;21.27;48.90
30873;BME280;17579;42.690;2.586;2023-05-07T10:03:05;97355.16;;;21.34;49.18
30873;BME280;17579;42.690;2.586;2023-05-07T10:05:34;97358.66;;;21.41;49.29
30873;BME280;17579;42.690;2.586;2023-05-07T10:08:09;97359.66;;;21.53;48.82
30873;BME280;17579;42.690;2.586;2023-05-07T10:10:59;97353.44;;;21.46;49.44
30873;BME280;17579;42.690;2.586;2023-05-07T10:14:29;97350.75;;;21.46;49.58
30873;BME280;17579;42.690;2.586;2023-05-07T10:16:53;97348.91;;;21.40;49.00
30873;BME280;17579;42.690;2.586;2023-05-07T10:19:45;97362.81;;;21.30;49.40
30873;BME280;17579;42.690;2.586;2023-05-07T10:22:45;97349.34;;;21.30;49.50
30873;BME280;17579;42.690;2.586;2023-05-07T10:25:39;97348.94;;;21.33;49.25
30873;BME280;17579;42.690;2.586;2023-05-07T10:28:25;97354.09;;;21.41;49.57
30873;BME280;17579;42.690;2.586;2023-05-07T10:31:01;97360.25;;;21.62;49.62
30873;BME280;17579;42.690;2.586;2023-05-07T10:33:29;97364.06;;;21.93;49.14
30873;BME280;17579;42.690;2.586;2023-05-07T10:36:00;97378.66;;;22.10;48.96
30873;BME280;17579;42.690;2.586;2023-05-07T10:38:34;97375.88;;;22.24;48.06
30873;BME280;17579;42.690;2.586;2023-05-07T10:41:13;97362.00;;;22.27;47.78
30873;BME280;17579;42.690;2.586;2023-05-07T10:43:59;97372.38;;;22.23;47.88
30873;BME280;17579;42.690;2.586;2023-05-07T10:46:35;97372.53;;;22.35;48.05
30873;BME280;17579;42.690;2.586;2023-05-07T10:49:11;97382.03;;;22.44;47.95
30873;BME280;17579;42.690;2.586;2023-05-07T10:51:41;97374.47;;;22.60;46.96
30873;BME280;17579;42.690;2.586;2023-05-07T10:54:35;97375.38;;;22.47;47.48
30873;BME280;17579;42.690;2.586;2023-05-07T11:00:21;97392.81;;;22.70;46.89
30873;BME280;17579;42.690;2.586;2023-05-07T11:03:12;97388.91;;;22.91;47.08
30873;BME280;17579;42.690;2.586;2023-05-07T11:05:42;97386.47;;;23.08;46.12
30873;BME280;17579;42.690;2.586;2023-05-07T11:08:10;97394.25;;;22.97;45.55
30873;BME280;17579;42.690;2.586;2023-05-07T11:13:15;97375.19;;;22.42;45.96
30873;BME280;17579;42.690;2.586;2023-05-07T11:24:07;97376.00;;;22.04;46.87
30873;BME280;17579;42.690;2.586;2023-05-07T11:29:19;97371.13;;;21.87;47.90
30873;BME280;17579;42.690;2.586;2023-05-07T11:31:50;97373.81;;;21.87;47.53
30873;BME280;17579;42.690;2.586;2023-05-07T11:34:20;97365.97;;;21.79;47.84
30873;BME280;17579;42.690;2.586;2023-05-07T11:37:04;97357.78;;;21.60;48.43
30873;BME280;17579;42.690;2.586;2023-05-07T11:39:45;97352.00;;;21.57;48.49
30873;BME280;17579;42.690;2.586;2023-05-07T11:42:48;97348.31;;;21.38;48.61
30873;BME280;17579;42.690;2.586;2023-05-07T11:45:26;97358.28;;;21.24;48.51
30873;BME280;17579;42.690;2.586;2023-05-07T11:47:51;97368.22;;;21.10;48.50
30873;BME280;17579;42.690;2.586;2023-05-07T11:53:36;97388.31;;;20.87;48.46
30873;BME280;17579;42.690;2.586;2023-05-07T11:56:13;97389.97;;;20.88;48.55
30873;BME280;17579;42.690;2.586;2023-05-07T11:58:44;97396.19;;;20.96;48.91
30873;BME280;17579;42.690;2.586;2023-05-07T12:01:34;97393.06;;;21.05;48.26
30873;BME280;17579;42.690;2.586;2023-05-07T12:04:11;97384.56;;;21.08;48.28
30873;BME280;17579;42.690;2.586;2023-05-07T12:06:39;97395.13;;;21.23;48.48
30873;BME280;17579;42.690;2.586;2023-05-07T12:09:04;97393.25;;;21.31;48.30
30873;BME280;17579;42.690;2.586;2023-05-07T12:11:35;97398.63;;;21.31;48.25
30873;BME280;17579;42.690;2.586;2023-05-07T12:14:03;97396.53;;;21.26;47.99
30873;BME280;17579;42.690;2.586;2023-05-07T12:16:36;97403.19;;;21.23;47.96
30873;BME280;17579;42.690;2.586;2023-05-07T12:19:02;97409.38;;;21.24;47.85
30873;BME280;17579;42.690;2.586;2023-05-07T12:21:37;97402.78;;;21.26;48.35
30873;BME280;17579;42.690;2.586;2023-05-07T12:24:14;97395.94;;;21.24;48.52
30873;BME280;17579;42.690;2.586;2023-05-07T12:26:43;97387.28;;;21.08;47.97
30873;BME280;17579;42.690;2.586;2023-05-07T12:29:39;97397.84;;;20.90;48.34
30873;BME280;17579;42.690;2.586;2023-05-07T12:32:17;97379.66;;;20.92;47.90
30873;BME280;17579;42.690;2.586;2023-05-07T12:34:53;97393.91;;;20.79;48.60
30873;BME280;17579;42.690;2.586;2023-05-07T12:37:28;97390.19;;;20.73;48.96
30873;BME280;17579;42.690;2.586;2023-05-07T12:40:15;97398.47;;;20.72;49.27
30873;BME280;17579;42.690;2.586;2023-05-07T12:42:41;97410.47;;;20.76;49.38
30873;BME280;17579;42.690;2.586;2023-05-07T12:45:12;97418.47;;;20.63;49.29
30873;BME280;17579;42.690;2.586;2023-05-07T12:47:51;97417.22;;;20.58;49.28
30873;BME280;17579;42.690;2.586;2023-05-07T12:50:17;97423.84;;;20.56;49.39
30873;BME280;17579;42.690;2.586;2023-05-07T12:52:52;97428.38;;;20.55;49.74
30873;BME280;17579;42.690;2.586;2023-05-07T12:55:20;97427.75;;;20.60;49.52
30873;BME280;17579;42.690;2.586;2023-05-07T12:57:52;97419.69;;;20.60;49.55
30873;BME280;17579;42.690;2.586;2023-05-07T13:03:16;97415.13;;;20.47;49.74
30873;BME280;17579;42.690;2.586;2023-05-07T13:05:48;97422.41;;;20.53;49.60
30873;BME280;17579;42.690;2.586;2023-05-07T13:11:13;97402.56;;;20.54;50.18
30873;BME280;17579;42.690;2.586;2023-05-07T13:13:43;97411.44;;;20.55;50.55
30873;BME280;17579;42.690;2.586;2023-05-07T13:18:54;97414.94;;;20.55;50.75
30873;BME280;17579;42.690;2.586;2023-05-07T13:21:25;97424.03;;;20.41;50.42
30873;BME280;17579;42.690;2.586;2023-05-07T13:23:54;97427.69;;;20.20;50.71
30873;BME280;17579;42.690;2.586;2023-05-07T13:26:33;97438.22;;;20.15;50.66
30873;BME280;17579;42.690;2.586;2023-05-07T13:29:14;97440.47;;;20.11;51.15
30873;BME280;17579;42.690;2.586;2023-05-07T13:31:46;97439.41;;;20.05;50.93
30873;BME280;17579;42.690;2.586;2023-05-07T13:34:29;97432.81;;;20.01;50.85
30873;BME280;17579;42.690;2.586;2023-05-07T13:37:02;97420.44;;;20.07;50.71
30873;BME280;17579;42.690;2.586;2023-05-07T13:39:39;97417.94;;;20.05;50.76
30873;BME280;17579;42.690;2.586;2023-05-07T13:42:07;97414.66;;;20.10;50.34
30873;BME280;17579;42.690;2.586;2023-05-07T13:44:57;97438.19;;;20.08;50.61
30873;BME280;17579;42.690;2.586;2023-05-07T13:47:46;97442.69;;;20.01;50.78
30873;BME280;17579;42.690;2.586;2023-05-07T13:50:16;97439.00;;;20.02;50.77
30873;BME280;17579;42.690;2.586;2023-05-07T13:52:59;97449.13;;;20.00;51.02
30873;BME280;17579;42.690;2.586;2023-05-07T13:55:25;97458.19;;;20.05;50.42
30873;BME280;17579;42.690;2.586;2023-05-07T13:58:01;97462.34;;;20.01;50.43
30873;BME280;17579;42.690;2.586;2023-05-07T14:00:29;97468.94;;;19.99;50.83
30873;BME280;17579;42.690;2.586;2023-05-07T14:02:56;97486.25;;;19.96;50.54
30873;BME280;17579;42.690;2.586;2023-05-07T14:05:24;97475.09;;;19.93;50.52
30873;BME280;17579;42.690;2.586;2023-05-07T14:07:57;97473.53;;;19.77;50.61
30873;BME280;17579;42.690;2.586;2023-05-07T14:10:34;97486.06;;;19.69;50.63
30873;BME280;17579;42.690;2.586;2023-05-07T14:13:06;97477.84;;;19.71;51.18
30873;BME280;17579;42.690;2.586;2023-05-07T14:15:34;97475.78;;;19.73;50.36
30873;BME280;17579;42.690;2.586;2023-05-07T14:18:02;97476.41;;;19.75;50.19
30873;BME280;17579;42.690;2.586;2023-05-07T14:20:38;97476.50;;;19.82;50.04
30873;BME280;17579;42.690;2.586;2023-05-07T14:23:12;97467.06;;;19.93;50.11
30873;BME280;17579;42.690;2.586;2023-05-07T14:25:40;97463.97;;;19.96;50.52
30873;BME280;17579;42.690;2.586;2023-05-07T14:28:13;97455.50;;;20.05;50.52
30873;BME280;17579;42.690;2.586;2023-05-07T14:30:42;97456.78;;;20.10;50.05